createdAt,value
2018-05-21T00:03:04.614Z,92.50
2018-05-21T00:07:07.181Z,91.90
2018-05-21T00:11:18.140Z,91.40
2018-05-21T00:15:26.623Z,91.40
2018-05-21T00:19:29.172Z,91.40
2018-05-21T00:23:31.710Z,92.20
2018-05-21T00:27:35.000Z,91.80
2018-05-21T00:31:41.500Z,91.80
2018-05-21T00:35:48.482Z,92.30
2018-05-21T00:39:52.820Z,92.40
2018-05-21T00:43:55.634Z,92.40
2018-05-21T00:48:00.264Z,93.50
2018-05-21T00:52:02.804Z,94.50
2018-05-21T00:56:05.384Z,94.50
2018-05-21T01:00:08.020Z,94.80
2018-05-21T01:04:19.245Z,94.10
2018-05-21T01:08:27.563Z,94.30
2018-05-21T01:12:36.374Z,94.90
2018-05-21T01:16:40.958Z,94.90
2018-05-21T01:20:45.547Z,95.60
2018-05-21T01:24:48.567Z,95.30
2018-05-21T01:28:54.157Z,95.20
2018-05-21T01:32:57.518Z,95.60
2018-05-21T01:37:00.067Z,95.00
2018-05-21T01:41:02.595Z,95.20
2018-05-21T01:45:05.146Z,94.20
2018-05-21T01:49:07.670Z,93.70
2018-05-21T01:53:15.564Z,93.00
2018-05-21T01:57:19.450Z,92.50
2018-05-21T02:01:23.639Z,92.50
2018-05-21T02:05:26.208Z,92.70
2018-05-21T02:09:42.831Z,92.40
2018-05-21T02:13:46.803Z,92.60
2018-05-21T02:17:50.729Z,92.60
2018-05-21T02:21:54.066Z,92.80
2018-05-21T02:26:01.935Z,92.60
2018-05-21T02:30:04.454Z,93.00
2018-05-21T02:34:07.010Z,92.80
2018-05-21T02:38:13.634Z,92.60
2018-05-21T02:42:17.645Z,93.00
2018-05-21T02:46:22.007Z,92.80
2018-05-21T02:50:26.899Z,92.80
2018-05-21T02:54:30.706Z,92.60
2018-05-21T02:58:34.346Z,93.50
2018-05-21T03:02:36.944Z,92.70
2018-05-21T03:06:42.319Z,92.70
2018-05-21T03:10:50.610Z,93.60
2018-05-21T03:14:56.451Z,92.80
2018-05-21T03:18:59.127Z,93.20
2018-05-21T03:23:01.720Z,93.70
2018-05-21T03:27:05.027Z,93.20
2018-05-21T03:31:13.343Z,93.60
2018-05-21T03:35:17.942Z,93.30
2018-05-21T03:39:24.328Z,93.10
2018-05-21T03:43:27.686Z,93.70
2018-05-21T03:47:31.033Z,93.80
2018-05-21T03:51:33.565Z,93.70
2018-05-21T03:55:36.267Z,93.80
2018-05-21T03:59:51.278Z,93.50
2018-05-21T04:03:56.299Z,94.10
2018-05-21T04:07:59.732Z,93.80
2018-05-21T04:12:03.063Z,94.20
2018-05-21T04:16:05.586Z,94.10
2018-05-21T04:20:15.219Z,93.80
2018-05-21T04:24:19.249Z,93.60
2018-05-21T04:28:23.200Z,93.60
2018-05-21T04:32:25.808Z,93.70
2018-05-21T04:36:28.447Z,94.50
2018-05-21T04:40:31.703Z,94.90
2018-05-21T04:44:34.246Z,94.90
2018-05-21T04:48:37.353Z,94.60
2018-05-21T04:52:42.126Z,94.90
2018-05-21T04:56:45.541Z,95.20
2018-05-21T05:00:48.644Z,95.40
2018-05-21T05:04:52.260Z,95.50
2018-05-21T05:08:54.898Z,95.50
2018-05-21T05:12:58.180Z,96.30
2018-05-21T05:17:03.518Z,96.30
2018-05-21T05:21:06.144Z,96.30
2018-05-21T05:25:11.454Z,97.20
2018-05-21T05:29:14.684Z,96.80
2018-05-21T05:33:18.047Z,96.90
2018-05-21T05:37:21.958Z,97.30
2018-05-21T05:41:25.129Z,97.30
2018-05-21T05:45:28.415Z,97.30
2018-05-21T05:49:30.961Z,97.20
2018-05-21T05:53:34.271Z,97.30
2018-05-21T05:57:37.781Z,97.20
2018-05-21T06:01:43.158Z,96.70
2018-05-21T06:05:46.598Z,96.70
2018-05-21T06:09:50.587Z,97.20
2018-05-21T06:13:53.991Z,97.20
2018-05-21T06:17:58.266Z,93.30
2018-05-21T06:22:00.835Z,93.30
2018-05-21T06:26:07.146Z,91.10
2018-05-21T06:30:11.742Z,88.90
2018-05-21T06:34:16.955Z,83.00
2018-05-21T06:38:20.288Z,82.90
2018-05-21T06:42:22.986Z,84.40
2018-05-21T06:46:25.730Z,83.30
2018-05-21T06:50:36.879Z,79.80
2018-05-21T06:54:41.122Z,78.50
2018-05-21T06:58:46.895Z,78.40
2018-05-21T07:02:50.571Z,78.60
2018-05-21T07:06:57.599Z,81.70
2018-05-21T07:11:01.188Z,81.10
2018-05-21T07:15:03.717Z,80.60
2018-05-21T07:19:08.816Z,82.00
2018-05-21T07:23:14.695Z,84.20
2018-05-21T07:27:18.751Z,84.20
2018-05-21T07:31:21.840Z,80.00
2018-05-21T07:35:25.097Z,77.20
2018-05-21T07:39:39.070Z,72.40
2018-05-21T07:43:45.288Z,69.20
2018-05-21T07:47:51.550Z,69.20
2018-05-21T07:51:55.959Z,64.50
2018-05-21T07:56:01.792Z,65.70
2018-05-21T08:00:04.410Z,65.60
2018-05-21T08:04:16.190Z,65.20
2018-05-21T08:08:22.470Z,61.60
2018-05-21T08:12:33.690Z,60.80
2018-05-21T08:16:37.309Z,60.80
2018-05-21T08:20:48.827Z,60.70
2018-05-21T08:24:52.730Z,61.00
2018-05-21T08:28:56.233Z,63.90
2018-05-21T08:33:03.806Z,64.20
2018-05-21T08:37:06.572Z,64.10
2018-05-21T08:41:14.787Z,63.50
2018-05-21T08:45:19.752Z,66.40
2018-05-21T08:49:23.708Z,63.70
2018-05-21T08:53:26.943Z,66.70
2018-05-21T08:57:29.651Z,66.60
2018-05-21T09:01:32.236Z,63.10
2018-05-21T09:05:43.690Z,67.50
2018-05-21T09:09:47.399Z,67.50
2018-05-21T09:13:50.733Z,65.40
2018-05-21T09:17:54.287Z,65.20
2018-05-21T09:21:57.856Z,65.20
2018-05-21T09:26:01.226Z,66.10
2018-05-21T09:30:04.541Z,66.80
2018-05-21T09:34:12.300Z,66.70
2018-05-21T09:38:15.374Z,68.10
2018-05-21T09:42:20.349Z,69.00
2018-05-21T09:46:25.327Z,67.20
2018-05-21T09:50:28.790Z,68.70
2018-05-21T09:54:35.480Z,71.10
2018-05-21T09:58:58.155Z,71.60
2018-05-21T10:03:06.364Z,66.20
2018-05-21T10:07:12.137Z,68.50
2018-05-21T10:11:16.607Z,66.30
2018-05-21T10:15:20.163Z,66.30
2018-05-21T10:19:23.017Z,65.80
2018-05-21T10:23:25.619Z,64.30
2018-05-21T10:27:35.712Z,67.00
2018-05-21T10:31:42.096Z,66.10
2018-05-21T10:35:45.560Z,67.00
2018-05-21T10:39:48.582Z,59.90
2018-05-21T10:43:53.502Z,59.70
2018-05-21T10:47:56.950Z,61.90
2018-05-21T10:52:13.292Z,59.30
2018-05-21T10:56:17.051Z,59.30
2018-05-21T11:00:20.828Z,60.70
2018-05-21T11:04:24.736Z,56.50
2018-05-21T11:08:28.724Z,56.40
2018-05-21T11:12:40.609Z,56.20
2018-05-21T11:16:44.648Z,56.80
2018-05-21T11:20:47.858Z,56.70
2018-05-21T11:24:51.674Z,57.00
2018-05-21T11:29:03.586Z,56.10
2018-05-21T11:33:12.577Z,57.20
2018-05-21T11:37:15.766Z,57.20
2018-05-21T11:41:19.028Z,56.00
2018-05-21T11:45:21.979Z,57.40
2018-05-21T11:49:24.550Z,55.80
2018-05-21T11:53:29.007Z,57.70
2018-05-21T11:57:36.953Z,56.50
2018-05-21T12:01:42.326Z,57.10
2018-05-21T12:05:46.482Z,58.00
2018-05-21T12:09:50.416Z,58.30
2018-05-21T12:13:54.144Z,58.50
2018-05-21T12:17:57.705Z,57.60
2018-05-21T12:22:02.526Z,58.10
2018-05-21T12:26:05.108Z,57.90
2018-05-21T12:30:09.809Z,59.00
2018-05-21T12:34:16.498Z,59.80
2018-05-21T12:38:21.642Z,60.20
2018-05-21T12:42:24.348Z,60.00
2018-05-21T12:46:27.845Z,62.70
2018-05-21T12:50:38.052Z,61.10
2018-05-21T12:54:43.152Z,61.30
2018-05-21T12:58:47.346Z,65.20
2018-05-21T13:02:50.356Z,65.20
2018-05-21T13:06:53.877Z,64.00
2018-05-21T13:10:56.473Z,63.90
2018-05-21T13:15:00.159Z,63.30
2018-05-21T13:19:07.648Z,64.90
2018-05-21T13:23:11.674Z,62.50
2018-05-21T13:27:15.172Z,61.00
2018-05-21T13:31:19.084Z,61.00
2018-05-21T13:35:22.056Z,62.90
2018-05-21T13:39:36.956Z,62.50
2018-05-21T13:43:40.250Z,63.00
2018-05-21T13:47:43.967Z,62.90
2018-05-21T13:51:50.124Z,62.60
2018-05-21T13:55:53.484Z,63.00
2018-05-21T13:59:56.890Z,62.80
2018-05-21T14:03:59.405Z,63.00
2018-05-21T14:08:04.774Z,63.80
2018-05-21T14:12:07.334Z,63.70
2018-05-21T14:16:12.123Z,63.70
2018-05-21T14:20:14.884Z,63.00
2018-05-21T14:24:17.853Z,64.00
2018-05-21T14:28:21.602Z,64.90
2018-05-21T14:32:25.982Z,65.30
2018-05-21T14:36:29.443Z,65.30
2018-05-21T14:40:40.418Z,64.60
2018-05-21T14:44:45.669Z,66.40
2018-05-21T14:48:50.982Z,63.30
2018-05-21T14:52:53.956Z,64.80
2018-05-21T14:56:56.738Z,65.60
2018-05-21T15:01:02.162Z,64.50
2018-05-21T15:05:05.059Z,65.90
2018-05-21T15:09:16.893Z,65.50
2018-05-21T15:13:23.094Z,64.90
2018-05-21T15:17:26.676Z,66.50
2018-05-21T15:21:34.431Z,66.70
2018-05-21T15:25:37.759Z,67.70
2018-05-21T15:29:42.300Z,67.70
2018-05-21T15:33:48.401Z,67.20
2018-05-21T15:37:51.920Z,68.00
2018-05-21T15:41:56.514Z,66.30
2018-05-21T15:46:04.068Z,66.10
2018-05-21T15:50:06.605Z,66.50
2018-05-21T15:54:10.566Z,67.70
2018-05-21T15:58:15.757Z,68.40
2018-05-21T16:02:19.501Z,68.00
2018-05-21T16:06:25.744Z,65.60
2018-05-21T16:10:29.120Z,67.20
2018-05-21T16:14:42.418Z,67.10
2018-05-21T16:18:46.718Z,71.00
2018-05-21T16:22:49.752Z,71.00
2018-05-21T16:26:52.494Z,70.20
2018-05-21T16:30:56.968Z,67.60
2018-05-21T16:35:00.571Z,67.50
2018-05-21T16:39:11.317Z,67.90
2018-05-21T16:43:16.127Z,67.80
2018-05-21T16:47:18.948Z,69.10
2018-05-21T16:51:21.847Z,67.80
2018-05-21T16:55:25.387Z,68.30
2018-05-21T16:59:30.779Z,70.20
2018-05-21T17:03:41.402Z,70.00
2018-05-21T17:07:44.974Z,73.00
2018-05-21T17:11:48.441Z,72.90
2018-05-21T17:15:51.471Z,73.00
2018-05-21T17:19:54.012Z,75.30
2018-05-21T17:23:56.563Z,78.10
2018-05-21T17:27:59.100Z,78.20
2018-05-21T17:32:01.748Z,79.60
2018-05-21T17:36:05.274Z,81.00
2018-05-21T17:40:11.798Z,81.50
2018-05-21T17:44:14.763Z,81.40
2018-05-21T17:48:20.259Z,83.30
2018-05-21T17:52:22.874Z,83.20
2018-05-21T17:56:40.325Z,84.30
2018-05-21T18:00:44.022Z,83.70
2018-05-21T18:04:47.743Z,84.80
2018-05-21T18:08:50.737Z,85.50
2018-05-21T18:12:53.566Z,85.10
2018-05-21T18:16:58.078Z,84.90
2018-05-21T18:21:11.404Z,85.20
2018-05-21T18:25:14.328Z,84.20
2018-05-21T18:29:19.657Z,86.10
2018-05-21T18:33:22.496Z,86.10
2018-05-21T18:37:27.166Z,87.00
2018-05-21T18:41:37.683Z,88.00
2018-05-21T18:45:40.911Z,88.20
2018-05-21T18:49:44.738Z,89.00
2018-05-21T18:53:48.173Z,89.40
2018-05-21T18:57:54.323Z,90.10
2018-05-21T19:01:57.294Z,90.40
2018-05-21T19:06:11.387Z,90.80
2018-05-21T19:10:15.477Z,90.80
2018-05-21T19:14:20.527Z,91.50
2018-05-21T19:18:24.177Z,91.50
2018-05-21T19:22:27.446Z,89.60
2018-05-21T19:26:29.998Z,90.10
2018-05-21T19:30:36.156Z,90.70
2018-05-21T19:34:38.870Z,91.00
2018-05-21T19:38:41.875Z,90.80
2018-05-21T19:42:44.830Z,91.00
2018-05-21T19:46:48.600Z,91.00
2018-05-21T19:50:53.008Z,91.60
2018-05-21T19:54:56.335Z,91.90
2018-05-21T19:58:58.892Z,91.80
2018-05-21T20:03:07.224Z,91.50
2018-05-21T20:07:23.421Z,91.60
2018-05-21T20:11:34.465Z,91.70
2018-05-21T20:15:38.061Z,91.90
2018-05-21T20:19:41.169Z,91.80
2018-05-21T20:23:48.560Z,92.00
2018-05-21T20:27:51.616Z,92.00
2018-05-21T20:31:54.252Z,91.90
2018-05-21T20:36:10.873Z,92.10
2018-05-21T20:40:13.839Z,92.10
2018-05-21T20:44:17.647Z,92.20
2018-05-21T20:48:20.606Z,92.30
2018-05-21T20:52:23.278Z,92.60
2018-05-21T20:56:26.779Z,92.40
2018-05-21T21:00:29.319Z,92.40
2018-05-21T21:04:33.850Z,92.50
2018-05-21T21:08:37.185Z,92.30
2018-05-21T21:12:40.880Z,92.30
2018-05-21T21:16:44.974Z,92.50
2018-05-21T21:20:48.088Z,92.90
2018-05-21T21:24:54.823Z,92.70
2018-05-21T21:28:57.511Z,92.60
2018-05-21T21:33:03.531Z,92.80
2018-05-21T21:37:06.163Z,92.80
2018-05-21T21:41:10.902Z,92.80
2018-05-21T21:45:14.173Z,92.30
2018-05-21T21:49:17.739Z,92.40
2018-05-21T21:53:23.014Z,92.40
2018-05-21T21:57:25.608Z,93.00
2018-05-21T22:01:28.929Z,93.90
2018-05-21T22:05:32.211Z,94.70
2018-05-21T22:09:39.566Z,94.60
2018-05-21T22:13:43.320Z,95.50
2018-05-21T22:17:46.629Z,95.50
2018-05-21T22:21:49.653Z,95.50
2018-05-21T22:25:52.843Z,95.60
2018-05-21T22:29:55.543Z,95.90
2018-05-21T22:33:58.100Z,96.50
2018-05-21T22:38:01.472Z,96.60
2018-05-21T22:42:04.131Z,96.60
2018-05-21T22:46:09.221Z,96.90
2018-05-21T22:50:14.953Z,96.80
2018-05-21T22:54:29.346Z,97.40
2018-05-21T22:58:31.898Z,97.40
2018-05-21T23:02:35.187Z,97.90
2018-05-21T23:06:40.366Z,97.90
2018-05-21T23:10:45.623Z,97.90
2018-05-21T23:14:48.395Z,98.20
2018-05-21T23:18:53.862Z,98.30
2018-05-21T23:22:56.508Z,98.30
2018-05-21T23:26:59.938Z,98.30
2018-05-21T23:31:03.260Z,98.70
2018-05-21T23:35:06.567Z,98.90
2018-05-21T23:39:14.749Z,98.80
2018-05-21T23:43:19.176Z,99.40
2018-05-21T23:47:27.835Z,99.60
2018-05-21T23:51:31.121Z,98.80
2018-05-21T23:55:33.763Z,98.80
2018-05-21T23:59:37.090Z,99.20
